createdAt,value
2023-02-26T00:01:14.556Z,99734.16
2023-02-26T00:04:23.932Z,99740.84
2023-02-26T00:07:07.411Z,99739.06
2023-02-26T00:53:04.499Z,99799.81
2023-02-26T00:55:50.699Z,99795.81
2023-02-26T00:59:13.705Z,99804.47
2023-02-26T01:52:32.120Z,99805.13
2023-02-26T01:55:55.561Z,99805.31
2023-02-26T01:58:31.760Z,99798.63
2023-02-26T02:00:58.648Z,99792.09
2023-02-26T02:03:31.602Z,99798.84
2023-02-26T02:06:28.853Z,99799.03
2023-02-26T02:08:57.479Z,99798.97
2023-02-26T02:11:27.163Z,99806.53
2023-02-26T02:14:27.629Z,99799.88
2023-02-26T02:17:21.300Z,99810.72
2023-02-26T02:20:11.992Z,99816.56
2023-02-26T02:26:24.833Z,99813.88
2023-02-26T02:29:50.265Z,99820.53
2023-02-26T02:32:33.785Z,99825.34
2023-02-26T02:35:18.344Z,99820.31
2023-02-26T02:37:58.710Z,99825.34
2023-02-26T02:40:35.342Z,99834.50
2023-02-26T02:43:07.497Z,99833.72
2023-02-26T02:45:54.205Z,99838.75
2023-02-26T02:48:34.325Z,99841.28
2023-02-26T02:51:37.856Z,99841.28
2023-02-26T02:54:26.698Z,99847.03
2023-02-26T02:57:05.798Z,99848.63
2023-02-26T02:59:57.056Z,99850.25
2023-02-26T03:02:32.697Z,99850.19
2023-02-26T03:05:00.000Z,99854.34
2023-02-26T03:07:27.148Z,99844.28
2023-02-26T03:09:55.127Z,99850.09
2023-02-26T03:12:22.126Z,99854.16
2023-02-26T03:14:49.442Z,99855.75
2023-02-26T03:17:47.697Z,99864.88
2023-02-26T03:20:38.457Z,99870.47
2023-02-26T03:23:26.010Z,99866.00
2023-02-26T03:26:11.575Z,99869.16
2023-02-26T03:28:45.537Z,99878.16
2023-02-26T03:31:20.988Z,99882.22
2023-02-26T03:34:21.134Z,99884.59
2023-02-26T03:37:10.608Z,99885.16
2023-02-26T03:40:00.891Z,99890.78
2023-02-26T03:43:01.687Z,99890.53
2023-02-26T03:45:50.860Z,99893.63
2023-02-26T04:10:15.746Z,99918.91
2023-02-26T04:12:43.430Z,99926.41
2023-02-26T04:15:13.277Z,99919.66
2023-02-26T04:17:46.064Z,99920.41
2023-02-26T04:20:33.357Z,99918.56
2023-02-26T04:25:55.232Z,99933.28
2023-02-26T04:28:31.805Z,99938.97
2023-02-26T04:30:58.888Z,99943.03
2023-02-26T04:33:29.782Z,99943.66
2023-02-26T04:35:56.975Z,99946.13
2023-02-26T04:38:24.543Z,99951.91
2023-02-26T04:40:51.646Z,99952.69
2023-02-26T04:43:19.318Z,99949.31
2023-02-26T04:45:48.009Z,99953.31
2023-02-26T04:48:16.073Z,99958.38
2023-02-26T04:50:44.775Z,99957.47
2023-02-26T04:53:13.136Z,99959.09
2023-02-26T04:55:41.794Z,99960.72
2023-02-26T04:58:09.147Z,99964.84
2023-02-26T05:01:09.241Z,99964.88
2023-02-26T05:03:36.259Z,99965.47
2023-02-26T05:06:03.251Z,99967.91
2023-02-26T05:08:30.319Z,99972.91
2023-02-26T05:10:57.586Z,99986.38
2023-02-26T05:13:26.836Z,99976.25
2023-02-26T05:15:55.307Z,99977.91
2023-02-26T05:18:25.411Z,99983.78
2023-02-26T05:20:55.878Z,99986.22
2023-02-26T05:23:24.432Z,99989.59
2023-02-26T05:25:51.589Z,99986.56
2023-02-26T05:28:18.677Z,99986.97
2023-02-26T05:30:45.709Z,99988.22
2023-02-26T05:33:12.632Z,99991.22
2023-02-26T05:35:39.648Z,100001.84
2023-02-26T05:38:06.814Z,100003.22
2023-02-26T05:40:37.025Z,100002.97
2023-02-26T05:43:06.271Z,100006.34
2023-02-26T05:45:33.281Z,99997.75
2023-02-26T05:48:00.528Z,100004.28
2023-02-26T05:50:27.582Z,100015.78
2023-02-26T05:52:54.503Z,100018.25
2023-02-26T05:55:21.444Z,100025.69
2023-02-26T05:57:48.499Z,100033.03
2023-02-26T06:00:15.995Z,100041.31
2023-02-26T06:02:43.206Z,100041.97
2023-02-26T06:05:10.618Z,100045.25
2023-02-26T06:07:37.524Z,100049.47
2023-02-26T06:10:06.602Z,100057.72
2023-02-26T06:12:33.344Z,100056.91
2023-02-26T06:15:00.192Z,100059.34
2023-02-26T06:17:27.603Z,100064.44
2023-02-26T06:19:54.339Z,100069.38
2023-02-26T06:22:21.086Z,100074.31
2023-02-26T06:24:47.975Z,100076.81
2023-02-26T06:27:14.787Z,100080.88
2023-02-26T06:29:41.601Z,100085.03
2023-02-26T06:32:08.874Z,100098.44
2023-02-26T06:34:35.720Z,100099.28
2023-02-26T06:37:02.582Z,100099.28
2023-02-26T06:39:29.331Z,100109.53
2023-02-26T06:41:56.158Z,100109.75
2023-02-26T06:44:22.903Z,100115.97
2023-02-26T06:46:49.746Z,100124.00
2023-02-26T06:49:16.733Z,100129.72
2023-02-26T06:51:43.512Z,100134.63
2023-02-26T06:54:10.263Z,100140.59
2023-02-26T06:56:37.054Z,100142.34
2023-02-26T06:59:03.950Z,100134.94
2023-02-26T07:01:32.079Z,100141.78
2023-02-26T07:03:58.988Z,100146.22
2023-02-26T07:06:38.717Z,100150.75
2023-02-26T07:09:05.610Z,100152.91
2023-02-26T07:11:32.425Z,100160.06
2023-02-26T07:13:59.223Z,100158.00
2023-02-26T07:16:26.295Z,100162.63
2023-02-26T07:18:53.257Z,100162.09
2023-02-26T07:21:20.242Z,100163.16
2023-02-26T07:23:47.059Z,100168.34
2023-02-26T07:26:13.889Z,100173.38
2023-02-26T07:28:40.681Z,100179.09
2023-02-26T07:31:07.482Z,100182.19
2023-02-26T07:33:35.108Z,100180.16
2023-02-26T07:36:02.227Z,100181.53
2023-02-26T07:38:28.997Z,100184.31
2023-02-26T07:40:56.794Z,100179.44
2023-02-26T07:43:25.014Z,100192.16
2023-02-26T07:45:52.962Z,100194.59
2023-02-26T07:48:20.780Z,100200.34
2023-02-26T07:50:47.659Z,100199.84
2023-02-26T07:53:14.755Z,100215.34
2023-02-26T07:55:41.633Z,100216.41
2023-02-26T07:58:08.500Z,100221.66
2023-02-26T08:00:35.365Z,100217.16
2023-02-26T08:03:02.306Z,100230.56
2023-02-26T08:05:30.609Z,100228.06
2023-02-26T08:07:57.626Z,100236.72
2023-02-26T08:10:24.814Z,100228.41
2023-02-26T08:12:51.709Z,100235.84
2023-02-26T08:15:18.709Z,100243.03
2023-02-26T08:17:45.559Z,100243.22
2023-02-26T08:20:14.813Z,100234.91
2023-02-26T08:22:42.099Z,100243.44
2023-02-26T08:25:09.352Z,100250.38
2023-02-26T08:27:39.921Z,100253.97
2023-02-26T08:30:10.102Z,100253.31
2023-02-26T08:32:39.889Z,100256.09
2023-02-26T08:35:07.113Z,100261.38
2023-02-26T08:37:34.018Z,100269.13
2023-02-26T08:40:00.885Z,100266.97
2023-02-26T08:42:27.681Z,100277.41
2023-02-26T08:44:54.471Z,100274.47
2023-02-26T08:47:28.530Z,100281.03
2023-02-26T08:49:56.075Z,100283.53
2023-02-26T08:52:23.244Z,100281.19
2023-02-26T08:54:50.495Z,100286.81
2023-02-26T08:57:17.738Z,100284.50
2023-02-26T08:59:44.634Z,100279.56
2023-02-26T09:02:13.160Z,100289.34
2023-02-26T09:04:40.066Z,100300.22
2023-02-26T09:07:07.302Z,100298.06
2023-02-26T09:09:34.218Z,100303.19
2023-02-26T09:12:01.064Z,100309.72
2023-02-26T09:14:28.113Z,100302.31
2023-02-26T09:16:55.032Z,100307.00
2023-02-26T09:19:21.996Z,100308.84
2023-02-26T09:21:48.944Z,100302.94
2023-02-26T09:24:16.068Z,100313.03
2023-02-26T09:26:43.321Z,100320.91
2023-02-26T09:29:11.470Z,100318.91
2023-02-26T09:31:38.403Z,100325.50
2023-02-26T09:34:11.592Z,100325.44
2023-02-26T09:36:49.223Z,100327.19
2023-02-26T09:39:25.505Z,100324.00
2023-02-26T09:42:30.159Z,100329.38
2023-02-26T09:45:03.537Z,100330.22
2023-02-26T09:47:41.819Z,100330.97
2023-02-26T09:53:31.577Z,100347.16
2023-02-26T09:56:21.767Z,100353.97
2023-02-26T09:58:50.387Z,100354.72
2023-02-26T10:01:46.415Z,100360.69
2023-02-26T10:05:00.474Z,100367.88
2023-02-26T10:08:23.789Z,100359.97
2023-02-26T10:11:10.459Z,100362.69
2023-02-26T10:13:56.543Z,100359.84
2023-02-26T10:16:31.464Z,100363.44
2023-02-26T10:19:18.110Z,100362.53
2023-02-26T10:21:56.317Z,100370.78
2023-02-26T10:24:35.714Z,100367.94
2023-02-26T10:27:13.193Z,100370.84
2023-02-26T10:30:11.434Z,100383.00
2023-02-26T10:32:59.688Z,100377.44
2023-02-26T10:35:36.572Z,100376.91
2023-02-26T10:38:13.802Z,100387.31
2023-02-26T10:40:50.819Z,100391.06
2023-02-26T10:43:37.694Z,100399.84
2023-02-26T10:46:37.958Z,100396.19
2023-02-26T10:49:19.689Z,100403.50
2023-02-26T10:51:47.199Z,100406.84
2023-02-26T10:54:24.312Z,100404.56
2023-02-26T10:56:51.073Z,100410.81
2023-02-26T10:59:17.902Z,100402.13
2023-02-26T11:01:45.917Z,100392.97
2023-02-26T11:04:19.792Z,100414.25
2023-02-26T11:06:56.253Z,100394.00
2023-02-26T11:09:39.383Z,100403.72
2023-02-26T11:12:12.798Z,100408.88
2023-02-26T11:14:41.880Z,100406.31
2023-02-26T11:17:22.350Z,100408.78
2023-02-26T11:20:01.020Z,100407.22
2023-02-26T11:22:33.218Z,100409.13
2023-02-26T11:25:00.669Z,100407.53
2023-02-26T11:27:35.030Z,100407.53
2023-02-26T11:30:16.700Z,100407.53
2023-02-26T11:32:45.482Z,100408.38
2023-02-26T11:35:16.901Z,100409.31
2023-02-26T11:37:52.746Z,100417.88
2023-02-26T11:40:32.196Z,100418.84
2023-02-26T11:43:06.737Z,100424.84
2023-02-26T11:45:39.251Z,100415.66
2023-02-26T11:48:13.356Z,100424.91
2023-02-26T11:50:48.464Z,100411.28
2023-02-26T11:53:50.934Z,100414.53
2023-02-26T11:56:43.457Z,100406.84
2023-02-26T11:59:21.823Z,100404.31
2023-02-26T12:01:51.006Z,100405.97
2023-02-26T12:04:27.698Z,100395.81
2023-02-26T12:06:56.801Z,100398.31
2023-02-26T12:09:25.850Z,100399.97
2023-02-26T12:12:43.643Z,100398.97
2023-02-26T12:16:02.197Z,100388.41
2023-02-26T12:18:51.265Z,100395.53
2023-02-26T12:22:02.335Z,100400.13
2023-02-26T12:25:14.597Z,100393.66
2023-02-26T12:28:15.335Z,100391.34
2023-02-26T12:31:19.244Z,100394.94
2023-02-26T12:34:03.993Z,100396.09
2023-02-26T12:37:10.292Z,100388.22
2023-02-26T12:40:07.061Z,100397.06
2023-02-26T12:42:59.681Z,100382.66
2023-02-26T12:46:01.892Z,100384.22
2023-02-26T12:49:04.187Z,100385.81
2023-02-26T12:52:00.702Z,100387.56
2023-02-26T12:55:12.818Z,100386.78
2023-02-26T12:58:11.719Z,100393.69
2023-02-26T13:00:55.688Z,100389.59
2023-02-26T13:03:44.497Z,100393.09
2023-02-26T13:06:45.023Z,100381.28
2023-02-26T13:09:20.312Z,100390.41
2023-02-26T13:12:07.661Z,100389.50
2023-02-26T13:15:18.805Z,100383.47
2023-02-26T13:18:42.083Z,100394.16
2023-02-26T13:21:18.106Z,100395.56
2023-02-26T13:24:05.130Z,100388.69
2023-02-26T13:26:34.863Z,100396.19
2023-02-26T13:29:15.822Z,100399.56
2023-02-26T13:32:18.438Z,100395.91
2023-02-26T13:35:01.070Z,100392.25
2023-02-26T13:37:38.014Z,100390.38
2023-02-26T13:40:40.019Z,100392.69
2023-02-26T13:43:14.589Z,100384.97
2023-02-26T13:46:25.069Z,100397.41
2023-02-26T13:49:48.961Z,100393.78
2023-02-26T13:52:28.914Z,100391.81
2023-02-26T13:54:59.461Z,100389.25
2023-02-26T13:57:47.582Z,100388.31
2023-02-26T14:00:29.426Z,100382.97
2023-02-26T14:03:11.586Z,100388.75
2023-02-26T14:06:06.294Z,100388.63
2023-02-26T14:09:04.719Z,100384.31
2023-02-26T14:11:45.954Z,100383.34
2023-02-26T14:14:25.139Z,100386.59
2023-02-26T14:17:09.729Z,100390.72
2023-02-26T14:19:53.919Z,100394.09
2023-02-26T14:22:34.840Z,100402.34
2023-02-26T14:25:38.310Z,100390.41
2023-02-26T14:28:33.403Z,100389.63
2023-02-26T14:31:22.203Z,100391.41
2023-02-26T14:34:27.064Z,100397.22
2023-02-26T14:36:59.513Z,100406.31
2023-02-26T14:39:40.023Z,100400.19
2023-02-26T14:42:38.348Z,100403.47
2023-02-26T14:45:39.705Z,100410.06
2023-02-26T14:48:14.177Z,100408.34
2023-02-26T14:51:09.666Z,100403.31
2023-02-26T14:54:07.098Z,100390.69
2023-02-26T14:57:08.927Z,100405.66
2023-02-26T15:00:12.312Z,100391.34
2023-02-26T15:03:15.602Z,100405.66
2023-02-26T15:06:05.637Z,100406.53
2023-02-26T15:09:07.162Z,100405.81
2023-02-26T15:11:55.930Z,100409.13
2023-02-26T15:15:01.833Z,100403.22
2023-02-26T15:18:37.027Z,100405.81
2023-02-26T15:21:29.189Z,100411.56
2023-02-26T15:23:58.146Z,100403.88
2023-02-26T15:26:34.973Z,100419.13
2023-02-26T15:29:07.110Z,100414.13
2023-02-26T15:31:53.001Z,100419.13
2023-02-26T15:34:21.329Z,100428.31
2023-02-26T15:36:53.389Z,100426.56
2023-02-26T15:39:23.566Z,100423.75
2023-02-26T15:41:53.721Z,100432.81
2023-02-26T15:44:28.735Z,100436.91
2023-02-26T15:47:02.077Z,100440.19
2023-02-26T15:49:43.534Z,100446.91
2023-02-26T15:52:17.387Z,100442.72
2023-02-26T15:54:50.727Z,100451.94
2023-02-26T15:57:19.822Z,100446.03
2023-02-26T15:59:50.932Z,100449.28
2023-02-26T16:02:29.353Z,100460.06
2023-02-26T16:04:56.279Z,100458.31
2023-02-26T16:07:23.669Z,100456.41
2023-02-26T16:09:54.250Z,100458.81
2023-02-26T16:12:43.676Z,100456.25
2023-02-26T16:15:25.961Z,100459.41
2023-02-26T16:17:55.356Z,100464.34
2023-02-26T16:20:27.278Z,100460.06
2023-02-26T16:23:03.922Z,100462.50
2023-02-26T16:25:51.711Z,100467.44
2023-02-26T16:28:49.300Z,100465.00
2023-02-26T16:31:25.334Z,100478.41
2023-02-26T16:34:04.187Z,100478.41
2023-02-26T16:36:41.439Z,100475.31
2023-02-26T16:39:08.131Z,100479.00
2023-02-26T16:41:40.616Z,100478.81
2023-02-26T16:44:30.224Z,100477.41
2023-02-26T16:46:59.166Z,100481.16
2023-02-26T16:49:32.097Z,100478.22
2023-02-26T16:52:00.260Z,100491.34
2023-02-26T16:54:32.195Z,100486.91
2023-02-26T16:57:05.570Z,100488.38
2023-02-26T16:59:38.391Z,100485.63
2023-02-26T17:02:26.218Z,100494.72
2023-02-26T17:04:59.695Z,100494.50
2023-02-26T17:07:31.809Z,100489.28
2023-02-26T17:10:19.409Z,100494.94
2023-02-26T17:12:50.707Z,100502.28
2023-02-26T17:15:41.668Z,100498.78
2023-02-26T17:18:08.534Z,100511.16
2023-02-26T17:20:37.448Z,100505.03
2023-02-26T17:23:08.784Z,100507.38
2023-02-26T17:25:50.212Z,100514.69
2023-02-26T17:28:24.187Z,100507.72
2023-02-26T17:30:52.427Z,100508.41
2023-02-26T17:33:19.878Z,100515.72
2023-02-26T17:35:47.527Z,100516.44
2023-02-26T17:38:15.956Z,100525.34
2023-02-26T17:40:47.517Z,100521.78
2023-02-26T17:43:14.388Z,100525.81
2023-02-26T17:45:41.405Z,100523.88
2023-02-26T17:48:10.344Z,100532.97
2023-02-26T17:50:57.796Z,100530.31
2023-02-26T17:53:33.268Z,100539.31
2023-02-26T17:56:00.300Z,100537.44
2023-02-26T17:58:34.366Z,100538.19
2023-02-26T18:01:03.916Z,100540.53
2023-02-26T18:03:31.124Z,100547.97
2023-02-26T18:05:58.360Z,100543.66
2023-02-26T18:08:30.149Z,100541.88
2023-02-26T18:10:59.214Z,100545.06
2023-02-26T18:13:27.112Z,100554.25
2023-02-26T18:15:56.517Z,100551.75
2023-02-26T18:18:24.829Z,100550.81
2023-02-26T18:20:52.984Z,100548.25
2023-02-26T18:23:19.748Z,100554.00
2023-02-26T18:25:49.176Z,100553.91
2023-02-26T18:28:24.234Z,100559.50
2023-02-26T18:30:52.361Z,100557.75
2023-02-26T18:33:20.647Z,100557.56
2023-02-26T18:35:57.113Z,100564.06
2023-02-26T18:38:27.833Z,100564.78
2023-02-26T18:40:55.544Z,100569.69
2023-02-26T18:43:22.602Z,100572.03
2023-02-26T18:45:52.124Z,100570.34
2023-02-26T18:48:21.361Z,100571.94
2023-02-26T18:50:49.369Z,100575.22
2023-02-26T18:53:17.576Z,100576.00
2023-02-26T18:55:44.925Z,100588.53
2023-02-26T18:58:11.763Z,100575.91
2023-02-26T19:00:38.564Z,100586.75
2023-02-26T19:03:05.326Z,100585.00
2023-02-26T19:05:32.143Z,100584.94
2023-02-26T19:07:59.683Z,100594.13
2023-02-26T19:10:29.386Z,100594.69
2023-02-26T19:12:56.333Z,100599.66
2023-02-26T19:15:24.643Z,100597.09
2023-02-26T19:17:51.646Z,100600.31
2023-02-26T19:20:18.971Z,100604.47
2023-02-26T19:22:47.211Z,100596.91
2023-02-26T20:07:55.659Z,100643.09
2023-02-26T20:11:15.794Z,100644.00
2023-02-26T20:43:18.952Z,100672.28
2023-02-26T20:45:46.192Z,100674.00
2023-02-26T20:48:13.265Z,100679.94
2023-02-26T20:50:40.444Z,100672.47
2023-02-26T20:53:08.167Z,100678.50
2023-02-26T20:55:35.658Z,100679.44
2023-02-26T20:58:03.789Z,100680.38
2023-02-26T21:00:31.752Z,100679.59
2023-02-26T21:02:58.780Z,100680.44
2023-02-26T21:05:25.620Z,100687.34
2023-02-26T21:07:52.650Z,100690.66
2023-02-26T21:10:20.246Z,100684.78
2023-02-26T21:12:47.521Z,100687.34
2023-02-26T21:15:14.893Z,100691.56
2023-02-26T21:17:43.545Z,100692.44
2023-02-26T21:20:13.256Z,100695.84
2023-02-26T21:22:40.208Z,100692.44
2023-02-26T21:25:08.485Z,100697.38
2023-02-26T21:27:35.853Z,100696.78
2023-02-26T21:30:06.004Z,100695.13
2023-02-26T21:32:33.520Z,100686.94
2023-02-26T21:35:00.447Z,100694.63
2023-02-26T21:37:29.265Z,100692.22
2023-02-26T21:39:56.372Z,100693.06
2023-02-26T21:42:23.638Z,100702.31
2023-02-26T21:44:50.480Z,100692.34
2023-02-26T21:47:17.689Z,100690.81
2023-02-26T21:49:44.884Z,100685.03
2023-02-26T21:52:12.665Z,100684.31
2023-02-26T21:54:40.071Z,100692.72
2023-02-26T21:57:07.242Z,100685.28
2023-02-26T21:59:35.016Z,100682.78
2023-02-26T22:02:03.072Z,100680.13
2023-02-26T22:04:30.739Z,100674.28
2023-02-26T22:06:57.538Z,100671.72
2023-02-26T22:09:24.255Z,100675.78
2023-02-26T22:11:51.049Z,100683.31
2023-02-26T22:14:18.486Z,100674.81
2023-02-26T22:16:45.368Z,100669.75
2023-02-26T22:19:12.562Z,100666.34
2023-02-26T22:21:39.391Z,100682.19
2023-02-26T22:24:06.917Z,100676.94
2023-02-26T22:26:34.090Z,100685.31
2023-02-26T22:29:01.006Z,100678.31
2023-02-26T22:31:29.759Z,100680.72
2023-02-26T22:33:57.422Z,100678.88
2023-02-26T22:36:25.223Z,100683.66
2023-02-26T22:38:52.062Z,100678.38
2023-02-26T22:41:19.023Z,100673.31
2023-02-26T22:43:45.887Z,100677.50
2023-02-26T22:46:12.761Z,100680.59
2023-02-26T22:48:39.603Z,100678.66
2023-02-26T22:51:06.402Z,100683.47
2023-02-26T22:53:33.246Z,100681.75
2023-02-26T22:56:06.952Z,100686.00
2023-02-26T22:58:34.314Z,100685.00
2023-02-26T23:01:03.437Z,100689.16
2023-02-26T23:03:30.994Z,100684.22
2023-02-26T23:05:58.678Z,100688.22
2023-02-26T23:08:26.552Z,100688.94
2023-02-26T23:10:59.820Z,100695.53
2023-02-26T23:13:30.634Z,100692.03
2023-02-26T23:15:58.252Z,100703.59
2023-02-26T23:18:25.516Z,100700.09
2023-02-26T23:20:52.407Z,100707.53
2023-02-26T23:23:19.271Z,100694.84
2023-02-26T23:25:47.165Z,100693.06
2023-02-26T23:28:14.246Z,100697.91
2023-02-26T23:30:41.295Z,100692.00
2023-02-26T23:33:08.319Z,100692.78
2023-02-26T23:35:35.460Z,100695.16
2023-02-26T23:38:03.425Z,100695.88
2023-02-26T23:40:30.863Z,100699.22
2023-02-26T23:42:57.881Z,100699.94
2023-02-26T23:45:25.333Z,100691.53
2023-02-26T23:47:52.169Z,100703.16
2023-02-26T23:50:22.284Z,100702.38
2023-02-26T23:52:49.487Z,100702.31
2023-02-26T23:55:16.440Z,100705.47
2023-02-26T23:57:44.430Z,100705.38
